createdAt,value
2022-11-12T00:00:53.558Z,75.30
2022-11-12T00:03:20.740Z,75.20
2022-11-12T00:05:51.151Z,75.40
2022-11-12T00:08:17.972Z,75.20
2022-11-12T00:10:45.703Z,75.30
2022-11-12T00:13:12.966Z,75.40
2022-11-12T00:15:40.336Z,75.40
2022-11-12T00:18:07.640Z,75.70
2022-11-12T00:20:34.643Z,75.90
2022-11-12T00:23:01.405Z,75.80
2022-11-12T00:25:29.249Z,75.60
2022-11-12T00:28:05.443Z,75.50
2022-11-12T00:30:32.432Z,75.20
2022-11-12T00:33:02.882Z,75.00
2022-11-12T00:35:32.212Z,75.40
2022-11-12T00:37:59.165Z,75.50
2022-11-12T00:40:26.312Z,75.40
2022-11-12T00:42:53.783Z,75.30
2022-11-12T00:45:21.161Z,75.40
2022-11-12T00:47:48.098Z,75.30
2022-11-12T00:50:16.164Z,75.80
2022-11-12T00:52:43.022Z,76.60
2022-11-12T00:55:09.747Z,76.40
2022-11-12T00:57:36.441Z,76.20
2022-11-12T01:00:06.267Z,75.80
2022-11-12T01:02:38.621Z,76.00
2022-11-12T01:05:09.650Z,75.70
2022-11-12T01:07:36.352Z,75.70
2022-11-12T01:10:04.260Z,75.70
2022-11-12T01:12:31.753Z,75.80
2022-11-12T01:14:58.539Z,75.80
2022-11-12T01:17:25.265Z,75.60
2022-11-12T01:19:51.907Z,75.90
2022-11-12T01:22:18.647Z,75.90
2022-11-12T01:24:45.386Z,75.80
2022-11-12T01:27:12.056Z,75.80
2022-11-12T01:29:38.720Z,75.70
2022-11-12T01:32:05.689Z,75.80
2022-11-12T01:34:32.575Z,76.10
2022-11-12T01:36:59.324Z,76.00
2022-11-12T01:39:25.943Z,75.90
2022-11-12T01:41:52.629Z,76.10
2022-11-12T01:44:29.135Z,76.20
2022-11-12T01:47:14.631Z,76.30
2022-11-12T01:49:53.368Z,76.20
2022-11-12T01:52:44.856Z,76.20
2022-11-12T01:55:18.875Z,76.20
2022-11-12T01:57:55.445Z,76.10
2022-11-12T02:00:22.212Z,76.00
2022-11-12T02:02:59.440Z,76.20
2022-11-12T02:05:28.168Z,76.00
2022-11-12T02:07:57.201Z,76.00
2022-11-12T02:10:23.863Z,76.00
2022-11-12T02:13:22.174Z,76.40
2022-11-12T02:15:49.018Z,75.80
2022-11-12T02:18:16.105Z,75.80
2022-11-12T02:20:42.726Z,76.10
2022-11-12T02:23:09.493Z,76.10
2022-11-12T02:25:36.592Z,75.90
2022-11-12T02:28:07.981Z,75.90
2022-11-12T02:30:47.532Z,76.10
2022-11-12T02:33:14.376Z,77.20
2022-11-12T02:35:41.477Z,76.80
2022-11-12T02:38:09.033Z,76.50
2022-11-12T02:40:36.047Z,76.30
2022-11-12T02:43:02.765Z,76.30
2022-11-12T02:45:30.724Z,76.60
2022-11-12T02:47:57.618Z,76.40
2022-11-12T02:50:24.340Z,76.40
2022-11-12T02:52:51.115Z,76.30
2022-11-12T02:55:17.900Z,76.30
2022-11-12T02:57:44.595Z,76.40
2022-11-12T03:00:13.147Z,76.50
2022-11-12T03:02:42.669Z,76.50
2022-11-12T03:05:11.193Z,76.50
2022-11-12T03:07:38.565Z,76.20
2022-11-12T03:10:06.415Z,76.20
2022-11-12T03:12:33.647Z,76.10
2022-11-12T03:15:00.306Z,76.10
2022-11-12T03:17:26.987Z,76.00
2022-11-12T03:19:53.641Z,75.90
2022-11-12T03:22:20.294Z,76.00
2022-11-12T03:24:46.932Z,76.00
2022-11-12T03:27:13.592Z,76.00
2022-11-12T03:29:40.251Z,76.00
2022-11-12T03:32:06.947Z,76.10
2022-11-12T03:34:33.597Z,76.20
2022-11-12T03:37:00.233Z,76.30
2022-11-12T03:39:26.886Z,76.20
2022-11-12T03:41:53.540Z,76.10
2022-11-12T03:44:20.155Z,76.10
2022-11-12T03:46:46.810Z,76.10
2022-11-12T03:49:13.418Z,76.10
2022-11-12T03:51:40.056Z,76.00
2022-11-12T03:54:06.954Z,76.10
2022-11-12T03:56:33.623Z,76.00
2022-11-12T03:59:00.295Z,75.90
2022-11-12T04:01:27.074Z,75.90
2022-11-12T04:03:53.781Z,75.90
2022-11-12T04:06:39.445Z,75.90
2022-11-12T04:09:06.160Z,75.90
2022-11-12T04:11:32.768Z,75.90
2022-11-12T04:14:00.034Z,75.90
2022-11-12T04:16:45.108Z,76.00
2022-11-12T04:19:32.069Z,76.00
2022-11-12T04:22:03.467Z,76.10
2022-11-12T04:24:50.744Z,76.10
2022-11-12T04:27:25.891Z,75.90
2022-11-12T04:30:11.729Z,75.80
2022-11-12T04:32:41.332Z,75.90
2022-11-12T04:35:09.963Z,76.00
2022-11-12T04:37:46.513Z,76.10
2022-11-12T04:40:32.757Z,76.10
2022-11-12T04:43:19.004Z,76.10
2022-11-12T04:45:48.140Z,76.10
2022-11-12T04:48:15.267Z,76.00
2022-11-12T04:50:44.282Z,75.90
2022-11-12T04:53:11.191Z,75.80
2022-11-12T04:55:37.872Z,75.90
2022-11-12T04:58:04.654Z,76.00
2022-11-12T05:00:31.511Z,76.10
2022-11-12T05:02:58.176Z,76.00
2022-11-12T05:05:28.481Z,76.10
2022-11-12T05:08:00.886Z,76.10
2022-11-12T05:10:27.542Z,76.00
2022-11-12T05:12:54.170Z,76.10
2022-11-12T05:15:20.894Z,76.00
2022-11-12T05:17:47.589Z,75.90
2022-11-12T05:20:15.211Z,75.90
2022-11-12T05:22:47.702Z,76.00
2022-11-12T05:25:17.317Z,76.00
2022-11-12T05:27:43.995Z,76.10
2022-11-12T05:30:11.153Z,76.00
2022-11-12T05:32:37.778Z,76.00
2022-11-12T05:35:05.635Z,75.90
2022-11-12T05:37:32.273Z,76.10
2022-11-12T05:39:58.961Z,76.10
2022-11-12T05:42:25.653Z,76.20
2022-11-12T05:44:52.306Z,76.20
2022-11-12T05:47:18.948Z,76.50
2022-11-12T05:49:45.598Z,76.30
2022-11-12T05:52:12.245Z,76.20
2022-11-12T05:54:38.932Z,76.10
2022-11-12T05:57:05.540Z,76.10
2022-11-12T05:59:32.275Z,76.10
2022-11-12T06:01:59.018Z,76.10
2022-11-12T06:04:26.179Z,76.00
2022-11-12T06:06:52.907Z,76.20
2022-11-12T06:09:19.604Z,76.20
2022-11-12T06:11:46.363Z,77.00
2022-11-12T06:14:13.056Z,76.20
2022-11-12T06:16:39.707Z,76.10
2022-11-12T06:19:06.333Z,76.30
2022-11-12T06:21:33.756Z,76.20
2022-11-12T06:24:00.706Z,76.20
2022-11-12T06:26:29.238Z,76.30
2022-11-12T06:28:56.489Z,76.30
2022-11-12T06:31:23.427Z,76.30
2022-11-12T06:33:50.722Z,76.20
2022-11-12T06:36:20.132Z,76.50
2022-11-12T06:38:47.252Z,76.30
2022-11-12T06:41:14.393Z,76.30
2022-11-12T06:43:42.339Z,76.20
2022-11-12T06:46:13.229Z,76.40
2022-11-12T06:48:40.744Z,76.40
2022-11-12T06:51:09.735Z,76.30
2022-11-12T06:53:36.360Z,76.30
2022-11-12T06:56:04.992Z,76.30
2022-11-12T06:58:31.892Z,76.40
2022-11-12T07:01:08.444Z,76.40
2022-11-12T07:03:38.496Z,76.50
2022-11-12T07:06:07.487Z,76.30
2022-11-12T07:08:34.471Z,76.40
2022-11-12T07:11:01.362Z,76.50
2022-11-12T07:13:31.309Z,76.60
2022-11-12T07:15:59.742Z,76.60
2022-11-12T07:18:27.346Z,76.60
2022-11-12T07:21:06.495Z,76.70
2022-11-12T07:23:35.495Z,76.70
2022-11-12T07:26:04.879Z,76.70
2022-11-12T07:28:32.033Z,77.00
2022-11-12T07:31:04.517Z,77.90
2022-11-12T07:33:32.280Z,78.70
2022-11-12T07:36:00.332Z,78.90
2022-11-12T07:38:28.632Z,79.30
2022-11-12T07:41:05.560Z,79.20
2022-11-12T07:43:33.666Z,79.10
2022-11-12T07:46:11.404Z,78.70
2022-11-12T07:48:39.266Z,78.40
2022-11-12T07:51:18.495Z,78.30
2022-11-12T07:53:46.231Z,78.40
2022-11-12T07:56:15.178Z,78.40
2022-11-12T07:58:42.185Z,78.00
2022-11-12T08:01:30.611Z,77.90
2022-11-12T08:03:58.717Z,77.90
2022-11-12T08:06:26.620Z,77.90
2022-11-12T08:08:58.040Z,77.90
2022-11-12T08:11:24.900Z,78.00
2022-11-12T08:13:52.086Z,78.00
2022-11-12T08:16:19.280Z,78.00
2022-11-12T08:18:46.697Z,78.20
2022-11-12T08:21:15.645Z,78.70
2022-11-12T08:23:42.889Z,79.50
2022-11-12T08:26:12.929Z,79.50
2022-11-12T08:28:40.095Z,79.20
2022-11-12T08:31:12.440Z,78.90
2022-11-12T08:33:39.792Z,79.10
2022-11-12T08:36:09.899Z,78.80
2022-11-12T08:38:36.902Z,79.00
2022-11-12T08:41:06.634Z,79.00
2022-11-12T08:43:33.772Z,78.90
2022-11-12T08:46:05.029Z,79.40
2022-11-12T08:48:34.009Z,79.10
2022-11-12T08:51:05.655Z,79.60
2022-11-12T08:53:32.781Z,79.20
2022-11-12T08:55:59.896Z,79.40
2022-11-12T08:58:27.431Z,79.00
2022-11-12T09:00:55.793Z,79.40
2022-11-12T09:03:24.682Z,79.40
2022-11-12T09:05:52.767Z,79.50
2022-11-12T09:08:22.365Z,79.70
2022-11-12T09:10:50.234Z,80.40
2022-11-12T09:13:18.561Z,79.50
2022-11-12T09:15:45.943Z,79.40
2022-11-12T09:18:15.263Z,79.30
2022-11-12T09:20:41.971Z,79.30
2022-11-12T09:23:12.859Z,79.40
2022-11-12T09:25:40.997Z,79.40
2022-11-12T09:28:18.587Z,79.30
2022-11-12T09:30:47.219Z,79.80
2022-11-12T09:33:15.272Z,80.30
2022-11-12T09:35:42.725Z,80.70
2022-11-12T09:38:09.429Z,81.30
2022-11-12T09:40:51.216Z,81.60
2022-11-12T09:43:27.490Z,82.00
2022-11-12T09:46:13.944Z,81.30
2022-11-12T09:48:50.073Z,81.10
2022-11-12T09:51:27.112Z,80.90
2022-11-12T09:53:59.248Z,81.00
2022-11-12T09:56:28.163Z,80.80
2022-11-12T09:58:54.948Z,80.40
2022-11-12T10:01:41.287Z,80.10
2022-11-12T10:04:07.981Z,80.30
2022-11-12T10:06:50.238Z,81.10
2022-11-12T10:09:20.160Z,79.60
2022-11-12T10:12:22.783Z,80.10
2022-11-12T10:15:46.968Z,79.10
2022-11-12T10:18:16.169Z,79.60
2022-11-12T10:20:56.986Z,78.90
2022-11-12T10:23:46.176Z,78.40
2022-11-12T10:26:15.436Z,78.10
2022-11-12T10:28:57.827Z,78.10
2022-11-12T10:31:24.796Z,78.20
2022-11-12T10:33:54.060Z,77.30
2022-11-12T10:36:36.454Z,77.60
2022-11-12T10:39:03.530Z,77.40
2022-11-12T10:41:32.621Z,76.90
2022-11-12T10:44:04.585Z,77.30
2022-11-12T10:46:32.445Z,76.80
2022-11-12T10:49:26.785Z,77.00
2022-11-12T10:51:58.600Z,77.10
2022-11-12T10:54:36.076Z,77.90
2022-11-12T10:57:25.896Z,77.70
2022-11-12T11:00:18.116Z,77.90
2022-11-12T11:02:53.569Z,77.90
2022-11-12T11:05:49.668Z,77.90
2022-11-12T11:08:35.967Z,76.40
2022-11-12T11:11:28.469Z,77.40
2022-11-12T11:14:23.619Z,77.10
2022-11-12T11:16:51.509Z,76.10
2022-11-12T11:19:18.849Z,76.50
2022-11-12T11:21:57.618Z,76.20
2022-11-12T11:24:45.045Z,76.60
2022-11-12T11:27:29.279Z,77.00
2022-11-12T11:30:03.829Z,76.10
2022-11-12T11:32:52.025Z,76.00
2022-11-12T11:35:29.319Z,76.10
2022-11-12T11:38:31.626Z,76.10
2022-11-12T11:41:10.070Z,76.40
2022-11-12T11:44:01.079Z,76.60
2022-11-12T11:46:27.770Z,76.30
2022-11-12T11:49:06.421Z,76.30
2022-11-12T11:51:51.343Z,75.90
2022-11-12T11:54:23.648Z,75.60
2022-11-12T11:56:55.860Z,76.10
2022-11-12T11:59:40.043Z,76.00
2022-11-12T12:02:17.707Z,76.30
2022-11-12T12:05:05.588Z,76.60
2022-11-12T12:07:38.118Z,76.10
2022-11-12T12:10:16.821Z,76.40
2022-11-12T12:13:08.440Z,76.10
2022-11-12T12:15:59.080Z,76.30
2022-11-12T12:18:46.540Z,76.80
2022-11-12T12:21:18.212Z,77.00
2022-11-12T12:23:59.802Z,77.20
2022-11-12T12:26:29.171Z,76.70
2022-11-12T12:28:58.641Z,76.60
2022-11-12T12:31:32.581Z,77.10
2022-11-12T12:34:05.007Z,76.90
2022-11-12T12:36:41.043Z,76.60
2022-11-12T12:39:19.830Z,76.50
2022-11-12T12:42:00.703Z,76.30
2022-11-12T12:44:52.193Z,76.10
2022-11-12T12:47:20.392Z,76.30
2022-11-12T12:49:48.896Z,76.60
2022-11-12T12:52:15.650Z,76.40
2022-11-12T12:54:42.329Z,76.50
2022-11-12T12:57:30.007Z,77.00
2022-11-12T13:00:26.424Z,77.10
2022-11-12T13:02:53.308Z,76.80
2022-11-12T13:05:33.055Z,76.60
2022-11-12T13:08:35.720Z,76.80
2022-11-12T13:11:02.872Z,77.00
2022-11-12T13:13:33.128Z,77.00
2022-11-12T13:16:00.624Z,77.00
2022-11-12T13:18:42.189Z,76.90
2022-11-12T13:21:11.836Z,76.70
2022-11-12T13:24:07.888Z,76.70
2022-11-12T13:26:43.368Z,76.50
2022-11-12T13:29:39.177Z,76.60
2022-11-12T13:32:32.399Z,76.50
2022-11-12T13:35:17.087Z,76.00
2022-11-12T13:37:57.568Z,76.00
2022-11-12T13:40:30.158Z,76.20
2022-11-12T13:43:10.967Z,76.00
2022-11-12T13:46:05.484Z,75.90
2022-11-12T13:48:46.464Z,76.40
2022-11-12T13:51:16.720Z,75.60
2022-11-12T13:53:43.632Z,75.50
2022-11-12T13:56:12.152Z,75.50
2022-11-12T13:58:43.551Z,75.50
2022-11-12T14:01:12.251Z,75.50
2022-11-12T14:03:46.031Z,75.40
2022-11-12T14:06:37.237Z,75.40
2022-11-12T14:09:31.744Z,75.40
2022-11-12T14:12:23.621Z,75.30
2022-11-12T14:15:27.954Z,75.30
2022-11-12T14:18:04.596Z,75.50
2022-11-12T14:20:37.020Z,75.40
2022-11-12T14:23:13.311Z,75.20
2022-11-12T14:25:57.087Z,75.20
2022-11-12T14:28:35.619Z,75.10
2022-11-12T14:31:04.184Z,75.00
2022-11-12T14:33:32.283Z,75.00
2022-11-12T14:36:16.317Z,74.90
2022-11-12T14:38:52.169Z,74.80
2022-11-12T14:41:31.464Z,74.80
2022-11-12T14:44:12.843Z,74.60
2022-11-12T14:46:47.989Z,74.50
2022-11-12T14:49:34.043Z,74.40
2022-11-12T14:52:19.620Z,74.50
2022-11-12T14:54:51.975Z,74.50
2022-11-12T14:57:29.811Z,74.20
2022-11-12T14:59:57.845Z,74.40
2022-11-12T15:02:47.216Z,74.30
2022-11-12T15:05:22.078Z,74.20
2022-11-12T15:08:05.076Z,74.40
2022-11-12T15:10:34.824Z,73.90
2022-11-12T15:13:37.412Z,74.10
2022-11-12T15:16:07.363Z,74.10
2022-11-12T15:18:36.843Z,74.20
2022-11-12T15:21:12.486Z,74.20
2022-11-12T15:23:56.171Z,74.20
2022-11-12T15:26:47.544Z,74.10
2022-11-12T15:29:31.268Z,74.20
2022-11-12T15:32:04.203Z,74.30
2022-11-12T15:34:50.528Z,73.90
2022-11-12T15:37:20.265Z,73.80
2022-11-12T15:39:54.079Z,73.80
2022-11-12T15:42:41.605Z,74.10
2022-11-12T15:45:18.829Z,74.10
2022-11-12T15:47:45.969Z,74.50
2022-11-12T15:50:25.157Z,74.40
2022-11-12T15:52:51.783Z,74.20
2022-11-12T15:55:19.111Z,74.40
2022-11-12T15:57:51.225Z,74.30
2022-11-12T16:00:26.567Z,74.20
2022-11-12T16:02:59.278Z,74.40
2022-11-12T16:05:26.304Z,74.50
2022-11-12T16:07:53.023Z,74.50
2022-11-12T16:10:20.099Z,74.10
2022-11-12T16:12:47.997Z,74.40
2022-11-12T16:15:16.485Z,74.40
2022-11-12T16:17:43.157Z,74.40
2022-11-12T16:20:23.344Z,74.40
2022-11-12T16:22:51.220Z,74.60
2022-11-12T16:25:19.816Z,75.30
2022-11-12T16:27:50.170Z,74.60
2022-11-12T16:30:22.484Z,74.70
2022-11-12T16:32:49.213Z,74.60
2022-11-12T16:35:16.555Z,74.50
2022-11-12T16:37:44.839Z,74.30
2022-11-12T16:40:21.297Z,74.40
2022-11-12T16:42:47.988Z,74.30
2022-11-12T16:45:19.995Z,74.30
2022-11-12T16:47:55.867Z,74.40
2022-11-12T16:50:25.758Z,74.40
2022-11-12T16:52:55.596Z,74.40
2022-11-12T16:55:22.408Z,74.30
2022-11-12T16:57:49.051Z,74.40
2022-11-12T17:00:19.041Z,74.30
2022-11-12T17:02:49.490Z,74.40
2022-11-12T17:05:23.014Z,74.40
2022-11-12T17:07:54.414Z,74.30
2022-11-12T17:10:23.951Z,74.30
2022-11-12T17:12:51.806Z,74.20
2022-11-12T17:15:18.944Z,74.00
2022-11-12T17:17:45.928Z,73.80
2022-11-12T17:20:12.572Z,74.00
2022-11-12T17:22:39.223Z,74.10
2022-11-12T17:25:07.063Z,74.00
2022-11-12T17:27:33.724Z,74.10
2022-11-12T17:30:00.377Z,74.10
2022-11-12T17:32:27.097Z,74.10
2022-11-12T17:34:53.766Z,74.20
2022-11-12T17:37:20.424Z,74.20
2022-11-12T17:39:47.108Z,74.30
2022-11-12T17:42:13.764Z,74.30
2022-11-12T17:44:40.511Z,74.20
2022-11-12T17:47:07.220Z,74.20
2022-11-12T17:49:33.894Z,74.40
2022-11-12T17:52:00.609Z,74.50
2022-11-12T17:54:27.242Z,74.60
2022-11-12T17:56:53.861Z,74.50
2022-11-12T17:59:20.576Z,74.50
2022-11-12T18:01:47.304Z,74.70
2022-11-12T18:04:13.964Z,74.70
2022-11-12T18:06:40.691Z,74.60
2022-11-12T18:09:15.402Z,74.70
2022-11-12T18:11:52.035Z,74.60
2022-11-12T18:14:18.889Z,74.40
2022-11-12T18:16:46.114Z,74.60
2022-11-12T18:19:12.900Z,74.50
2022-11-12T18:21:40.285Z,74.70
2022-11-12T18:24:12.039Z,74.70
2022-11-12T18:26:39.025Z,74.70
2022-11-12T18:29:07.273Z,74.80
2022-11-12T18:31:33.916Z,75.00
2022-11-12T18:34:00.824Z,74.80
2022-11-12T18:36:29.080Z,74.80
2022-11-12T18:38:56.079Z,74.90
2022-11-12T18:41:26.605Z,74.80
2022-11-12T18:43:54.212Z,74.80
2022-11-12T18:46:21.099Z,74.80
2022-11-12T18:48:47.902Z,74.60
2022-11-12T18:51:16.728Z,74.60
2022-11-12T18:53:43.824Z,74.60
2022-11-12T18:56:16.311Z,74.60
2022-11-12T18:58:43.609Z,74.50
2022-11-12T19:01:16.342Z,74.60
2022-11-12T19:03:43.697Z,74.40
2022-11-12T19:06:12.475Z,74.40
2022-11-12T19:08:39.516Z,74.40
2022-11-12T19:11:09.523Z,74.90
2022-11-12T19:13:36.671Z,74.80
2022-11-12T19:16:16.963Z,74.70
2022-11-12T19:18:44.291Z,74.50
2022-11-12T19:21:17.558Z,74.70
2022-11-12T19:23:44.361Z,74.50
2022-11-12T19:26:16.125Z,74.50
2022-11-12T19:28:44.091Z,74.70
2022-11-12T19:31:16.275Z,74.60
2022-11-12T19:33:43.312Z,74.40
2022-11-12T19:36:13.584Z,74.50
2022-11-12T19:38:40.330Z,74.80
2022-11-12T19:41:18.996Z,74.70
2022-11-12T19:43:46.996Z,74.60
2022-11-12T19:46:14.474Z,74.50
2022-11-12T19:48:41.522Z,74.70
2022-11-12T19:51:09.584Z,74.60
2022-11-12T19:53:44.248Z,74.50
2022-11-12T19:56:13.649Z,74.40
2022-11-12T19:58:44.074Z,74.30
2022-11-12T20:01:13.516Z,74.30
2022-11-12T20:03:40.646Z,74.40
2022-11-12T20:06:15.806Z,74.20
2022-11-12T20:08:42.592Z,74.60
2022-11-12T20:11:09.971Z,75.10
2022-11-12T20:13:36.846Z,74.50
2022-11-12T20:16:13.061Z,74.90
2022-11-12T20:18:40.284Z,74.90
2022-11-12T20:21:07.761Z,74.70
2022-11-12T20:23:35.666Z,74.60
2022-11-12T20:26:08.565Z,74.50
2022-11-12T20:28:37.321Z,74.70
2022-11-12T20:31:06.810Z,74.60
2022-11-12T20:33:37.910Z,74.80
2022-11-12T20:36:13.473Z,74.70
2022-11-12T20:38:42.642Z,74.70
2022-11-12T20:41:17.894Z,74.70
2022-11-12T20:43:44.681Z,74.90
2022-11-12T20:46:12.673Z,74.90
2022-11-12T20:48:43.189Z,75.10
2022-11-12T20:51:24.572Z,74.90
2022-11-12T20:53:58.961Z,74.90
2022-11-12T20:56:27.670Z,75.10
2022-11-12T20:58:55.093Z,74.90
2022-11-12T21:01:23.616Z,75.00
2022-11-12T21:03:50.637Z,75.00
2022-11-12T21:06:20.539Z,75.00
2022-11-12T21:08:47.273Z,74.90
2022-11-12T21:11:16.768Z,75.10
2022-11-12T21:13:43.492Z,75.20
2022-11-12T21:16:13.332Z,75.10
2022-11-12T21:18:41.072Z,75.20
2022-11-12T21:21:20.947Z,75.10
2022-11-12T21:23:50.329Z,75.10
2022-11-12T21:26:19.552Z,75.20
2022-11-12T21:28:48.841Z,75.00
2022-11-12T21:31:17.936Z,75.20
2022-11-12T21:33:44.629Z,75.30
2022-11-12T21:36:16.095Z,75.00
2022-11-12T21:38:43.630Z,75.10
2022-11-12T21:41:19.339Z,75.20
2022-11-12T21:43:46.787Z,75.20
2022-11-12T21:46:17.765Z,75.10
2022-11-12T21:48:45.342Z,75.20
2022-11-12T21:51:14.213Z,75.40
2022-11-12T21:53:41.427Z,75.40
2022-11-12T21:56:11.955Z,75.40
2022-11-12T21:58:39.261Z,75.40
2022-11-12T22:01:17.431Z,75.10
2022-11-12T22:03:44.944Z,75.10
2022-11-12T22:06:12.229Z,75.30
2022-11-12T22:08:40.152Z,75.40
2022-11-12T22:11:12.267Z,75.50
2022-11-12T22:13:39.137Z,75.60
2022-11-12T22:16:11.928Z,75.40
2022-11-12T22:18:39.194Z,75.50
2022-11-12T22:21:15.215Z,75.50
2022-11-12T22:23:41.968Z,75.50
2022-11-12T22:26:12.255Z,75.60
2022-11-12T22:28:39.232Z,75.60
2022-11-12T22:31:16.245Z,75.60
2022-11-12T22:33:42.980Z,75.80
2022-11-12T22:36:15.549Z,75.60
2022-11-12T22:38:44.098Z,75.50
2022-11-12T22:41:13.420Z,75.70
2022-11-12T22:43:41.000Z,76.10
2022-11-12T22:46:15.811Z,76.00
2022-11-12T22:48:42.803Z,75.90
2022-11-12T22:51:21.126Z,76.00
2022-11-12T22:53:52.239Z,76.00
2022-11-12T22:56:18.903Z,76.00
2022-11-12T22:58:47.253Z,75.90
2022-11-12T23:01:28.479Z,76.20
2022-11-12T23:03:57.296Z,76.10
2022-11-12T23:06:24.709Z,75.90
2022-11-12T23:08:53.079Z,75.90
2022-11-12T23:11:20.805Z,76.10
2022-11-12T23:13:48.213Z,76.00
2022-11-12T23:16:18.112Z,75.90
2022-11-12T23:18:44.875Z,76.00
2022-11-12T23:21:14.504Z,76.20
2022-11-12T23:23:41.235Z,76.20
2022-11-12T23:26:12.446Z,76.20
2022-11-12T23:28:39.352Z,76.20
2022-11-12T23:31:11.231Z,76.20
2022-11-12T23:33:38.755Z,76.30
2022-11-12T23:36:10.228Z,76.20
2022-11-12T23:38:36.959Z,76.20
2022-11-12T23:41:04.909Z,76.10
2022-11-12T23:43:31.785Z,76.20
2022-11-12T23:45:58.832Z,76.30
2022-11-12T23:48:26.539Z,76.40
2022-11-12T23:51:32.528Z,76.10
2022-11-12T23:53:59.155Z,77.10
2022-11-12T23:56:25.842Z,76.40
2022-11-12T23:58:54.952Z,76.60
